createdAt,value
2017-08-19T00:08:57.000Z,1006.054
2017-08-19T00:18:57.000Z,1006.136
2017-08-19T00:28:57.000Z,1006.136
2017-08-19T00:38:57.000Z,1006.239
2017-08-19T00:48:57.000Z,1006.377
2017-08-19T00:58:58.000Z,1006.436
2017-08-19T01:08:58.000Z,1006.503
2017-08-19T01:18:58.000Z,1006.457
2017-08-19T01:28:58.000Z,1006.571
2017-08-19T01:38:58.000Z,1006.607
2017-08-19T01:48:58.000Z,1006.556
2017-08-19T01:58:58.000Z,1006.599
2017-08-19T02:08:58.000Z,1006.604
2017-08-19T02:18:58.000Z,1006.544
2017-08-19T02:28:58.000Z,1006.513
2017-08-19T02:38:58.000Z,1006.513
2017-08-19T02:48:58.000Z,1006.479
2017-08-19T02:58:58.000Z,1006.533
2017-08-19T03:08:58.000Z,1006.501
2017-08-19T03:18:58.000Z,1006.546
2017-08-19T03:28:58.000Z,1006.608
2017-08-19T03:38:58.000Z,1006.599
2017-08-19T03:48:58.000Z,1006.716
2017-08-19T03:58:58.000Z,1006.835
2017-08-19T04:08:58.000Z,1006.846
2017-08-19T04:18:58.000Z,1006.736
2017-08-19T04:28:58.000Z,1006.729
2017-08-19T04:38:58.000Z,1006.811
2017-08-19T04:48:58.000Z,1006.932
2017-08-19T04:58:58.000Z,1007.031
2017-08-19T05:08:58.000Z,1007.073
2017-08-19T05:18:58.000Z,1007.171
2017-08-19T05:28:58.000Z,1007.263
2017-08-19T05:38:58.000Z,1007.273
2017-08-19T05:48:58.000Z,1007.349
2017-08-19T05:58:58.000Z,1007.201
2017-08-19T06:08:58.000Z,1007.022
2017-08-19T06:18:58.000Z,1007.015
2017-08-19T06:28:58.000Z,1007.164
2017-08-19T06:38:58.000Z,1007.353
2017-08-19T06:48:58.000Z,1007.407
2017-08-19T06:58:58.000Z,1007.382
2017-08-19T07:08:58.000Z,1007.377
2017-08-19T07:18:58.000Z,1007.308
2017-08-19T07:28:58.000Z,1007.343
2017-08-19T07:38:58.000Z,1007.423
2017-08-19T07:48:58.000Z,1007.503
2017-08-19T07:58:58.000Z,1007.509
2017-08-19T08:08:58.000Z,1007.559
2017-08-19T08:18:58.000Z,1007.609
2017-08-19T08:28:58.000Z,1007.88
2017-08-19T08:38:58.000Z,1008.004
2017-08-19T08:48:58.000Z,1008.053
2017-08-19T08:58:58.000Z,1008.057
2017-08-19T09:08:58.000Z,1008.068
2017-08-19T09:18:59.000Z,1008.008
2017-08-19T09:28:59.000Z,1008.088
2017-08-19T09:38:59.000Z,1008.134
2017-08-19T09:48:59.000Z,1008.111
2017-08-19T09:58:59.000Z,1008.264
2017-08-19T10:08:59.000Z,1008.343
2017-08-19T10:18:59.000Z,1008.37
2017-08-19T10:28:59.000Z,1008.451
2017-08-19T10:38:59.000Z,1008.383
2017-08-19T10:48:59.000Z,1008.384
2017-08-19T10:58:59.000Z,1008.366
2017-08-19T11:08:59.000Z,1008.382
2017-08-19T11:18:59.000Z,1008.399
2017-08-19T11:28:59.000Z,1008.556
2017-08-19T11:38:59.000Z,1008.767
2017-08-19T11:48:59.000Z,1008.625
2017-08-19T11:58:59.000Z,1008.731
2017-08-19T12:08:59.000Z,1008.734
2017-08-19T12:18:59.000Z,1008.725
2017-08-19T12:28:59.000Z,1008.743
2017-08-19T12:38:59.000Z,1008.778
2017-08-19T12:48:59.000Z,1009.018
2017-08-19T12:58:59.000Z,1009.442
2017-08-19T13:08:59.000Z,1009.407
2017-08-19T13:18:59.000Z,1009.31
2017-08-19T13:28:59.000Z,1009.352
2017-08-19T13:38:59.000Z,1009.325
2017-08-19T13:48:59.000Z,1009.252
2017-08-19T13:58:59.000Z,1009.428
2017-08-19T14:08:59.000Z,1009.752
2017-08-19T14:18:59.000Z,1009.749
2017-08-19T14:28:59.000Z,1009.691
2017-08-19T14:38:59.000Z,1009.732
2017-08-19T14:48:59.000Z,1009.762
2017-08-19T14:58:59.000Z,1009.742
2017-08-19T15:08:59.000Z,1009.847
2017-08-19T15:18:59.000Z,1009.859
2017-08-19T15:28:59.000Z,1009.943
2017-08-19T15:38:59.000Z,1009.979
2017-08-19T15:48:59.000Z,1009.977
2017-08-19T15:58:59.000Z,1009.874
2017-08-19T16:08:59.000Z,1009.902
2017-08-19T16:18:59.000Z,1009.835
2017-08-19T16:28:59.000Z,1009.769
2017-08-19T16:48:59.000Z,1009.881
2017-08-19T16:58:59.000Z,1010.157
2017-08-19T17:09:00.000Z,1010.191
2017-08-19T17:19:00.000Z,1010.372
2017-08-19T17:48:59.000Z,1010.437
2017-08-19T17:59:00.000Z,1010.552
